createdAt,value
2023-01-29T00:01:12.532Z,35.90
2023-01-29T00:03:40.704Z,55.50
2023-01-29T00:06:09.841Z,41.08
2023-01-29T00:08:39.145Z,40.90
2023-01-29T00:11:08.713Z,24.90
2023-01-29T00:13:37.614Z,30.38
2023-01-29T00:16:06.021Z,30.58
2023-01-29T00:18:34.262Z,32.53
2023-01-29T00:21:02.512Z,28.60
2023-01-29T00:23:30.885Z,32.75
2023-01-29T00:26:01.232Z,28.52
2023-01-29T00:28:29.576Z,34.22
2023-01-29T00:30:57.934Z,31.75
2023-01-29T00:33:26.301Z,51.47
2023-01-29T00:35:54.483Z,33.17
2023-01-29T00:38:22.787Z,55.03
2023-01-29T00:40:51.216Z,44.05
2023-01-29T00:43:19.539Z,33.88
2023-01-29T00:45:47.862Z,32.35
2023-01-29T00:48:16.055Z,38.58
2023-01-29T00:50:44.271Z,41.92
2023-01-29T00:53:12.422Z,51.63
2023-01-29T00:55:40.634Z,75.07
2023-01-29T00:58:08.701Z,63.58
2023-01-29T01:00:37.005Z,64.47
2023-01-29T01:03:05.418Z,52.85
2023-01-29T01:05:34.216Z,51.03
2023-01-29T01:08:02.483Z,44.28
2023-01-29T01:10:33.316Z,40.42
2023-01-29T01:13:04.788Z,49.35
2023-01-29T01:15:38.946Z,48.70
2023-01-29T01:18:07.491Z,46.63
2023-01-29T01:20:37.007Z,42.53
2023-01-29T01:23:05.715Z,33.92
2023-01-29T01:25:35.477Z,46.28
2023-01-29T01:28:03.745Z,40.42
2023-01-29T01:30:31.811Z,44.92
2023-01-29T01:33:00.148Z,44.55
2023-01-29T01:35:28.413Z,63.60
2023-01-29T01:37:56.605Z,73.45
2023-01-29T01:40:26.521Z,79.50
2023-01-29T01:42:57.922Z,92.13
2023-01-29T01:45:32.568Z,91.72
2023-01-29T01:48:19.631Z,95.85
2023-01-29T01:50:51.291Z,85.65
2023-01-29T01:53:31.909Z,94.72
2023-01-29T01:56:04.194Z,68.40
2023-01-29T02:01:06.803Z,76.43
2023-01-29T02:03:44.515Z,66.43
2023-01-29T02:06:12.789Z,63.97
2023-01-29T02:09:19.297Z,71.30
2023-01-29T02:11:47.787Z,70.00
2023-01-29T02:14:17.247Z,82.25
2023-01-29T02:16:46.373Z,87.82
2023-01-29T02:19:46.450Z,89.80
2023-01-29T02:22:44.007Z,59.60
2023-01-29T02:25:30.893Z,57.10
2023-01-29T02:28:18.584Z,58.17
2023-01-29T02:30:59.543Z,51.30
2023-01-29T02:33:34.942Z,54.22
2023-01-29T02:36:09.679Z,55.60
2023-01-29T02:39:15.253Z,51.70
2023-01-29T02:42:05.474Z,52.67
2023-01-29T02:45:10.059Z,53.70
2023-01-29T02:47:44.585Z,57.83
2023-01-29T02:50:34.332Z,54.80
2023-01-29T02:53:52.913Z,58.20
2023-01-29T02:56:47.136Z,53.60
2023-01-29T02:59:27.546Z,54.13
2023-01-29T03:02:03.151Z,52.22
2023-01-29T03:04:34.275Z,61.83
2023-01-29T03:07:08.269Z,56.70
2023-01-29T03:09:48.605Z,49.63
2023-01-29T03:12:27.274Z,69.63
2023-01-29T03:14:58.674Z,65.72
2023-01-29T03:17:33.524Z,68.47
2023-01-29T03:20:03.746Z,69.55
2023-01-29T03:22:33.137Z,61.60
2023-01-29T03:25:03.204Z,69.40
2023-01-29T03:27:54.542Z,75.85
2023-01-29T03:30:26.053Z,62.45
2023-01-29T03:33:08.669Z,54.28
2023-01-29T03:35:43.507Z,56.22
2023-01-29T03:38:12.846Z,52.92
2023-01-29T03:40:55.904Z,55.13
2023-01-29T03:43:45.488Z,50.42
2023-01-29T03:46:26.628Z,42.97
2023-01-29T03:49:23.031Z,45.40
2023-01-29T03:52:14.049Z,57.53
2023-01-29T03:55:11.105Z,44.97
2023-01-29T03:57:58.395Z,46.78
2023-01-29T04:00:39.624Z,43.85
2023-01-29T04:03:22.447Z,44.17
2023-01-29T04:09:09.891Z,42.72
2023-01-29T04:11:48.394Z,48.20
2023-01-29T04:14:18.690Z,39.35
2023-01-29T04:16:58.309Z,37.50
2023-01-29T04:19:46.920Z,41.88
2023-01-29T04:22:30.079Z,35.47
2023-01-29T04:25:00.039Z,35.70
2023-01-29T04:27:49.956Z,31.58
2023-01-29T04:30:43.301Z,30.40
2023-01-29T04:33:43.058Z,27.73
2023-01-29T04:36:39.282Z,30.70
2023-01-29T04:39:34.413Z,25.73
2023-01-29T04:42:18.473Z,30.23
2023-01-29T04:45:04.255Z,21.50
2023-01-29T04:47:49.643Z,24.35
2023-01-29T04:50:26.158Z,23.63
2023-01-29T04:53:29.636Z,25.33
2023-01-29T04:56:06.530Z,30.33
2023-01-29T04:58:51.261Z,28.52
2023-01-29T05:01:22.670Z,26.40
2023-01-29T05:03:53.913Z,19.40
2023-01-29T05:06:23.340Z,19.92
2023-01-29T05:08:52.788Z,16.88
2023-01-29T05:11:21.620Z,16.80
2023-01-29T05:13:50.441Z,18.88
2023-01-29T05:16:27.251Z,18.85
2023-01-29T05:18:55.959Z,23.65
2023-01-29T05:21:25.357Z,15.27
2023-01-29T05:24:33.898Z,16.55
2023-01-29T05:27:02.231Z,20.08
2023-01-29T05:29:30.588Z,12.35
2023-01-29T05:31:58.865Z,22.73
2023-01-29T05:34:27.304Z,16.30
2023-01-29T05:36:55.681Z,20.15
2023-01-29T05:39:23.965Z,13.82
2023-01-29T05:41:52.131Z,15.88
2023-01-29T05:44:20.614Z,16.98
2023-01-29T05:46:49.048Z,16.15
2023-01-29T05:49:18.382Z,16.08
2023-01-29T05:51:46.707Z,27.05
2023-01-29T05:54:15.375Z,20.67
2023-01-29T05:56:44.956Z,16.65
2023-01-29T05:59:13.343Z,17.00
2023-01-29T06:01:41.635Z,17.02
2023-01-29T06:04:09.837Z,14.32
2023-01-29T06:06:38.224Z,14.75
2023-01-29T06:09:06.451Z,17.40
2023-01-29T06:11:34.843Z,14.00
2023-01-29T06:14:03.192Z,17.90
2023-01-29T06:16:31.664Z,21.25
2023-01-29T06:18:59.758Z,14.85
2023-01-29T06:21:28.065Z,15.30
2023-01-29T06:23:56.441Z,23.83
2023-01-29T06:26:24.806Z,25.45
2023-01-29T06:28:53.109Z,21.60
2023-01-29T06:31:36.815Z,21.02
2023-01-29T06:34:07.191Z,20.05
2023-01-29T06:36:35.615Z,20.83
2023-01-29T06:39:04.572Z,29.25
2023-01-29T06:41:33.090Z,28.92
2023-01-29T06:44:01.376Z,25.52
2023-01-29T06:46:29.576Z,29.92
2023-01-29T06:49:00.754Z,24.58
2023-01-29T06:51:30.401Z,33.70
2023-01-29T06:53:58.967Z,20.77
2023-01-29T06:56:27.457Z,20.38
2023-01-29T06:58:55.610Z,27.20
2023-01-29T07:01:35.697Z,26.13
2023-01-29T07:04:05.308Z,24.27
2023-01-29T07:06:34.126Z,28.45
2023-01-29T07:09:02.816Z,20.15
2023-01-29T07:11:31.109Z,26.83
2023-01-29T07:13:59.395Z,22.08
2023-01-29T07:16:27.748Z,16.27
2023-01-29T07:18:56.302Z,23.23
2023-01-29T07:21:24.555Z,28.63
2023-01-29T07:23:52.914Z,34.80
2023-01-29T07:26:21.168Z,25.88
2023-01-29T07:28:49.604Z,27.83
2023-01-29T07:31:17.750Z,27.73
2023-01-29T07:33:46.686Z,28.33
2023-01-29T07:36:16.073Z,28.42
2023-01-29T07:38:44.374Z,20.08
2023-01-29T07:41:12.910Z,22.13
2023-01-29T07:43:41.605Z,18.08
2023-01-29T07:46:09.882Z,22.98
2023-01-29T07:48:38.273Z,19.98
2023-01-29T07:51:06.664Z,18.52
2023-01-29T07:53:35.169Z,16.33
2023-01-29T07:56:03.552Z,22.55
2023-01-29T07:58:31.870Z,21.00
2023-01-29T08:01:00.223Z,18.60
2023-01-29T08:03:28.486Z,25.20
2023-01-29T08:05:59.629Z,16.63
2023-01-29T08:08:27.800Z,14.85
2023-01-29T08:10:56.054Z,20.50
2023-01-29T08:13:24.380Z,19.60
2023-01-29T08:15:52.670Z,18.60
2023-01-29T08:18:20.888Z,15.50
2023-01-29T08:20:48.995Z,14.43
2023-01-29T08:23:17.548Z,16.67
2023-01-29T08:25:45.824Z,19.27
2023-01-29T08:28:14.272Z,19.48
2023-01-29T08:30:42.503Z,14.18
2023-01-29T08:33:11.009Z,25.60
2023-01-29T08:35:39.296Z,13.65
2023-01-29T08:38:07.590Z,16.83
2023-01-29T08:40:38.868Z,16.17
2023-01-29T08:43:09.593Z,18.42
2023-01-29T08:45:40.964Z,17.52
2023-01-29T08:48:10.081Z,13.23
2023-01-29T08:50:38.774Z,22.50
2023-01-29T08:53:09.097Z,23.13
2023-01-29T08:55:41.336Z,14.98
2023-01-29T08:58:11.508Z,12.65
2023-01-29T09:00:39.871Z,19.40
2023-01-29T09:03:08.271Z,23.80
2023-01-29T09:05:38.527Z,20.98
2023-01-29T09:08:15.353Z,15.10
2023-01-29T09:10:43.628Z,20.35
2023-01-29T09:13:11.821Z,17.38
2023-01-29T09:15:40.163Z,21.67
2023-01-29T09:18:08.268Z,28.02
2023-01-29T09:20:36.509Z,16.08
2023-01-29T09:23:09.923Z,16.33
2023-01-29T09:25:38.686Z,29.42
2023-01-29T09:28:07.178Z,21.60
2023-01-29T09:30:35.855Z,14.27
2023-01-29T09:33:05.462Z,17.70
2023-01-29T09:35:34.051Z,23.17
2023-01-29T09:38:02.643Z,12.25
2023-01-29T09:40:55.497Z,16.33
2023-01-29T09:43:51.371Z,18.67
2023-01-29T09:46:19.770Z,18.67
2023-01-29T09:48:53.727Z,18.42
2023-01-29T09:51:37.998Z,23.58
2023-01-29T09:54:30.172Z,20.48
2023-01-29T09:56:59.100Z,13.85
2023-01-29T09:59:31.930Z,34.70
2023-01-29T10:02:31.920Z,22.92
2023-01-29T10:05:00.221Z,16.45
2023-01-29T10:07:57.885Z,18.90
2023-01-29T10:10:44.892Z,25.27
2023-01-29T10:13:19.426Z,26.60
2023-01-29T10:16:07.465Z,16.90
2023-01-29T10:19:06.001Z,18.27
2023-01-29T10:21:46.851Z,16.52
2023-01-29T10:24:27.381Z,19.45
2023-01-29T10:26:58.614Z,12.50
2023-01-29T10:29:29.455Z,11.57
2023-01-29T10:32:03.365Z,15.45
2023-01-29T10:34:55.888Z,15.73
2023-01-29T10:37:28.964Z,14.15
2023-01-29T10:40:02.712Z,23.23
2023-01-29T10:42:50.292Z,12.82
2023-01-29T10:45:21.849Z,14.27
2023-01-29T10:50:43.497Z,20.80
2023-01-29T10:53:34.374Z,18.63
2023-01-29T10:56:30.151Z,13.40
2023-01-29T10:59:10.361Z,10.60
2023-01-29T11:01:38.721Z,25.88
2023-01-29T11:04:13.458Z,14.65
2023-01-29T11:06:41.681Z,12.57
2023-01-29T11:09:35.169Z,19.17
2023-01-29T11:12:17.435Z,16.15
2023-01-29T11:15:05.626Z,13.63
2023-01-29T11:17:34.193Z,21.50
2023-01-29T11:20:02.403Z,19.80
2023-01-29T11:22:31.637Z,22.23
2023-01-29T11:25:19.369Z,14.27
2023-01-29T11:27:49.011Z,19.33
2023-01-29T11:30:28.639Z,13.98
2023-01-29T11:33:20.370Z,18.77
2023-01-29T11:35:48.759Z,9.07
2023-01-29T11:38:17.002Z,9.13
2023-01-29T11:40:46.633Z,17.38
2023-01-29T11:43:34.285Z,12.75
2023-01-29T11:46:12.518Z,8.38
2023-01-29T11:48:45.380Z,14.10
2023-01-29T11:51:23.932Z,18.00
2023-01-29T11:54:03.571Z,10.77
2023-01-29T11:56:43.238Z,11.07
2023-01-29T11:59:46.731Z,11.35
2023-01-29T12:02:50.712Z,9.95
2023-01-29T12:05:21.755Z,10.65
2023-01-29T12:07:54.583Z,9.50
2023-01-29T12:10:34.579Z,14.10
2023-01-29T12:13:27.111Z,9.10
2023-01-29T12:16:29.262Z,11.80
2023-01-29T12:19:21.554Z,20.38
2023-01-29T12:21:49.864Z,9.00
2023-01-29T12:24:33.465Z,10.32
2023-01-29T12:27:27.460Z,16.67
2023-01-29T12:30:28.029Z,20.60
2023-01-29T12:33:10.726Z,12.82
2023-01-29T12:36:03.524Z,10.18
2023-01-29T12:38:31.906Z,14.77
2023-01-29T12:41:23.590Z,7.82
2023-01-29T12:44:02.129Z,21.90
2023-01-29T12:46:38.530Z,18.10
2023-01-29T12:49:17.936Z,19.13
2023-01-29T12:52:00.037Z,17.83
2023-01-29T12:54:43.094Z,15.27
2023-01-29T12:57:39.762Z,16.80
2023-01-29T13:00:15.530Z,16.08
2023-01-29T13:03:29.006Z,13.57
2023-01-29T13:06:09.967Z,13.07
2023-01-29T13:08:52.503Z,16.43
2023-01-29T13:11:27.760Z,18.13
2023-01-29T13:14:12.969Z,7.57
2023-01-29T13:16:48.472Z,10.80
2023-01-29T13:19:30.248Z,12.90
2023-01-29T13:22:08.213Z,14.25
2023-01-29T13:24:49.963Z,15.88
2023-01-29T13:27:32.689Z,15.02
2023-01-29T13:30:01.586Z,13.60
2023-01-29T13:32:32.405Z,8.60
2023-01-29T13:35:05.366Z,19.40
2023-01-29T13:37:36.977Z,26.65
2023-01-29T13:42:47.934Z,15.13
2023-01-29T13:45:26.245Z,11.80
2023-01-29T13:48:08.758Z,19.10
2023-01-29T13:50:42.733Z,11.55
2023-01-29T13:53:24.947Z,24.00
2023-01-29T13:55:53.246Z,15.50
2023-01-29T13:58:33.808Z,23.33
2023-01-29T14:01:02.178Z,19.20
2023-01-29T14:03:45.023Z,13.95
2023-01-29T14:06:42.573Z,14.57
2023-01-29T14:09:40.155Z,14.07
2023-01-29T14:12:23.971Z,16.55
2023-01-29T14:15:04.492Z,18.42
2023-01-29T14:17:33.111Z,16.60
2023-01-29T14:20:32.341Z,13.85
2023-01-29T14:23:08.860Z,15.75
2023-01-29T14:25:41.669Z,10.88
2023-01-29T14:28:20.327Z,22.80
2023-01-29T14:30:50.357Z,14.85
2023-01-29T14:33:27.594Z,18.98
2023-01-29T14:35:58.482Z,18.35
2023-01-29T14:38:29.300Z,12.70
2023-01-29T14:41:17.132Z,11.37
2023-01-29T14:43:45.508Z,15.25
2023-01-29T14:46:49.773Z,9.48
2023-01-29T14:49:56.023Z,12.65
2023-01-29T14:52:36.447Z,16.70
2023-01-29T14:55:11.871Z,11.43
2023-01-29T14:57:40.191Z,8.10
2023-01-29T15:00:24.805Z,9.10
2023-01-29T15:03:01.667Z,10.00
2023-01-29T15:05:37.871Z,14.13
2023-01-29T15:08:16.589Z,6.07
2023-01-29T15:10:54.147Z,18.77
2023-01-29T15:13:37.998Z,11.15
2023-01-29T15:16:31.054Z,8.02
2023-01-29T15:19:14.925Z,15.32
2023-01-29T15:22:16.455Z,17.13
2023-01-29T15:24:46.712Z,19.17
2023-01-29T15:27:20.517Z,19.25
2023-01-29T15:29:58.048Z,17.08
2023-01-29T15:32:39.904Z,7.78
2023-01-29T15:37:38.251Z,10.95
2023-01-29T15:40:15.549Z,24.95
2023-01-29T15:42:47.134Z,16.08
2023-01-29T15:45:35.672Z,12.50
2023-01-29T15:48:18.947Z,21.90
2023-01-29T15:50:48.443Z,22.55
2023-01-29T15:53:26.458Z,10.48
2023-01-29T15:55:54.810Z,18.13
2023-01-29T15:58:29.604Z,12.13
2023-01-29T16:01:00.501Z,9.57
2023-01-29T16:03:33.242Z,9.70
2023-01-29T16:06:02.819Z,17.48
2023-01-29T16:08:31.444Z,16.00
2023-01-29T16:11:03.615Z,14.65
2023-01-29T16:13:36.051Z,14.52
2023-01-29T16:16:27.887Z,12.85
2023-01-29T16:19:01.045Z,9.40
2023-01-29T16:21:34.960Z,12.15
2023-01-29T16:24:08.564Z,9.60
2023-01-29T16:26:42.795Z,11.40
2023-01-29T16:29:14.861Z,14.25
2023-01-29T16:31:45.139Z,7.97
2023-01-29T16:34:33.863Z,10.00
2023-01-29T16:37:05.682Z,15.95
2023-01-29T16:42:12.715Z,19.00
2023-01-29T16:44:45.937Z,9.93
2023-01-29T16:47:21.201Z,11.65
2023-01-29T16:50:01.188Z,16.65
2023-01-29T16:52:32.288Z,16.67
2023-01-29T16:55:22.059Z,21.38
2023-01-29T16:57:55.622Z,14.40
2023-01-29T17:00:29.791Z,12.90
2023-01-29T17:03:05.134Z,15.70
2023-01-29T17:05:37.587Z,9.65
2023-01-29T17:08:06.587Z,13.32
2023-01-29T17:10:39.812Z,20.30
2023-01-29T17:13:10.680Z,20.90
2023-01-29T17:15:47.366Z,12.52
2023-01-29T17:18:21.456Z,9.75
2023-01-29T17:20:50.475Z,10.27
2023-01-29T17:23:18.685Z,16.40
2023-01-29T17:25:48.183Z,12.73
2023-01-29T17:28:18.058Z,15.30
2023-01-29T17:30:56.606Z,14.98
2023-01-29T17:33:33.950Z,17.63
2023-01-29T17:36:02.298Z,15.15
2023-01-29T17:38:30.754Z,15.20
2023-01-29T17:41:09.245Z,14.18
2023-01-29T17:43:37.545Z,11.07
2023-01-29T17:46:06.278Z,14.73
2023-01-29T17:48:34.438Z,15.20
2023-01-29T17:51:05.018Z,14.48
2023-01-29T17:53:45.329Z,17.27
2023-01-29T17:56:40.578Z,13.15
2023-01-29T17:59:24.357Z,8.48
2023-01-29T18:01:52.877Z,14.18
2023-01-29T18:04:21.541Z,12.98
2023-01-29T18:06:51.727Z,13.30
2023-01-29T18:09:22.024Z,18.42
2023-01-29T18:11:51.178Z,14.55
2023-01-29T18:14:19.555Z,12.82
2023-01-29T18:16:48.606Z,11.93
2023-01-29T18:19:24.010Z,17.65
2023-01-29T18:21:52.333Z,18.92
2023-01-29T18:24:21.034Z,18.10
2023-01-29T18:26:50.117Z,16.58
2023-01-29T18:29:18.392Z,17.10
2023-01-29T18:31:49.622Z,12.82
2023-01-29T18:34:18.475Z,36.65
2023-01-29T18:36:46.734Z,18.65
2023-01-29T18:39:16.071Z,10.95
2023-01-29T18:41:44.423Z,15.63
2023-01-29T18:44:12.859Z,12.75
2023-01-29T18:46:41.293Z,15.95
2023-01-29T18:49:09.779Z,27.33
2023-01-29T18:51:38.204Z,21.83
2023-01-29T18:54:06.519Z,19.98
2023-01-29T18:56:34.914Z,22.08
2023-01-29T18:59:04.870Z,20.30
2023-01-29T19:01:34.009Z,26.25
2023-01-29T19:04:02.380Z,31.25
2023-01-29T19:06:30.692Z,28.88
2023-01-29T19:08:58.991Z,33.78
2023-01-29T19:11:27.291Z,43.20
2023-01-29T19:13:55.710Z,41.13
2023-01-29T19:16:26.597Z,75.65
2023-01-29T19:18:54.903Z,91.20
2023-01-29T19:21:26.438Z,136.52
2023-01-29T19:23:55.661Z,106.22
2023-01-29T19:26:24.093Z,99.35
2023-01-29T19:28:52.330Z,87.43
2023-01-29T19:31:20.734Z,59.75
2023-01-29T19:33:49.331Z,38.10
2023-01-29T19:36:17.730Z,30.80
2023-01-29T19:38:46.114Z,36.40
2023-01-29T19:41:14.691Z,40.28
2023-01-29T19:43:42.965Z,93.93
2023-01-29T19:46:11.310Z,53.72
2023-01-29T19:48:39.722Z,47.38
2023-01-29T19:51:10.211Z,35.70
2023-01-29T19:53:40.600Z,65.53
2023-01-29T19:56:14.913Z,82.60
2023-01-29T19:58:43.555Z,66.57
2023-01-29T20:01:16.144Z,52.17
2023-01-29T20:03:45.848Z,45.25
2023-01-29T20:06:29.220Z,48.47
2023-01-29T20:08:57.740Z,63.42
2023-01-29T20:11:26.049Z,52.00
2023-01-29T20:13:54.528Z,56.28
2023-01-29T20:16:26.181Z,74.93
2023-01-29T20:18:54.719Z,42.25
2023-01-29T20:21:48.197Z,94.85
2023-01-29T20:24:16.439Z,106.57
2023-01-29T20:26:44.835Z,74.97
2023-01-29T20:29:13.126Z,113.97
2023-01-29T20:31:41.724Z,118.10
2023-01-29T20:34:10.025Z,98.70
2023-01-29T20:36:38.312Z,92.00
2023-01-29T20:39:06.742Z,79.72
2023-01-29T20:41:35.044Z,45.90
2023-01-29T20:44:03.433Z,46.72
2023-01-29T20:46:31.763Z,31.95
2023-01-29T20:49:00.080Z,35.47
2023-01-29T20:51:28.378Z,45.80
2023-01-29T20:53:57.127Z,33.25
2023-01-29T20:56:36.072Z,60.15
2023-01-29T20:59:05.428Z,35.95
2023-01-29T21:01:33.615Z,27.90
2023-01-29T21:04:02.123Z,35.40
2023-01-29T21:06:30.409Z,33.88
2023-01-29T21:08:58.794Z,53.47
2023-01-29T21:11:27.197Z,65.72
2023-01-29T21:13:55.983Z,24.27
2023-01-29T21:16:24.717Z,18.77
2023-01-29T21:18:59.094Z,22.25
2023-01-29T21:21:27.368Z,38.75
2023-01-29T21:23:55.827Z,52.45
2023-01-29T21:26:24.590Z,28.65
2023-01-29T21:28:52.845Z,43.80
2023-01-29T21:31:21.341Z,28.27
2023-01-29T21:33:49.507Z,37.75
2023-01-29T21:36:18.146Z,37.75
2023-01-29T21:38:46.417Z,46.13
2023-01-29T21:41:14.720Z,38.60
2023-01-29T21:43:43.194Z,27.73
2023-01-29T21:46:11.959Z,21.80
2023-01-29T21:48:41.366Z,22.48
2023-01-29T21:51:09.809Z,16.35
2023-01-29T21:53:38.136Z,31.40
2023-01-29T21:56:07.023Z,40.30
2023-01-29T21:58:35.561Z,23.05
2023-01-29T22:01:35.908Z,16.70
2023-01-29T22:03:52.490Z,19.80
2023-01-29T22:06:20.716Z,32.67
2023-01-29T22:08:50.207Z,27.00
2023-01-29T22:11:19.147Z,30.20
2023-01-29T22:13:47.710Z,30.02
2023-01-29T22:16:16.017Z,20.98
2023-01-29T22:18:44.421Z,27.45
2023-01-29T22:21:12.704Z,27.15
2023-01-29T22:23:40.895Z,26.95
2023-01-29T22:26:09.470Z,20.48
2023-01-29T22:28:37.998Z,17.10
2023-01-29T22:31:06.655Z,15.48
2023-01-29T22:33:34.979Z,13.93
2023-01-29T22:36:03.862Z,14.30
2023-01-29T22:38:32.267Z,22.65
2023-01-29T22:41:01.313Z,33.65
2023-01-29T22:43:29.658Z,32.65
2023-01-29T22:45:57.985Z,41.65
2023-01-29T22:48:26.680Z,29.60
2023-01-29T22:50:59.621Z,32.00
2023-01-29T22:53:27.910Z,21.38
2023-01-29T22:55:56.201Z,25.75
2023-01-29T22:58:24.431Z,29.00
2023-01-29T23:00:52.826Z,23.30
2023-01-29T23:03:21.229Z,16.13
2023-01-29T23:05:49.469Z,25.38
2023-01-29T23:08:17.837Z,36.75
2023-01-29T23:10:46.248Z,25.35
2023-01-29T23:13:14.739Z,31.83
2023-01-29T23:15:42.952Z,22.15
2023-01-29T23:18:13.373Z,25.75
2023-01-29T23:20:41.545Z,28.17
2023-01-29T23:23:09.824Z,30.88
2023-01-29T23:25:38.012Z,33.78
2023-01-29T23:28:06.353Z,24.83
2023-01-29T23:30:34.548Z,23.35
2023-01-29T23:33:02.946Z,32.58
2023-01-29T23:35:31.367Z,26.42
2023-01-29T23:37:59.505Z,25.15
2023-01-29T23:40:27.852Z,18.67
2023-01-29T23:42:56.092Z,16.63
2023-01-29T23:45:24.447Z,21.20
2023-01-29T23:47:55.347Z,21.15
2023-01-29T23:50:23.657Z,23.27
2023-01-29T23:52:52.020Z,26.08
2023-01-29T23:55:20.285Z,21.67
2023-01-29T23:57:48.460Z,35.15
